createdAt,value
2019-03-28T00:00:50.817Z,13.37
2019-03-28T00:06:11.611Z,14.73
2019-03-28T00:11:32.466Z,13.50
2019-03-28T00:16:53.719Z,16.73
2019-03-28T00:22:23.712Z,20.73
2019-03-28T00:27:44.677Z,17.87
2019-03-28T00:33:05.931Z,18.60
2019-03-28T00:38:27.240Z,20.70
2019-03-28T00:43:48.854Z,18.87
2019-03-28T00:49:09.577Z,17.70
2019-03-28T00:54:30.719Z,19.97
2019-03-28T00:59:51.787Z,24.90
2019-03-28T01:05:13.407Z,22.30
2019-03-28T01:10:34.772Z,19.13
2019-03-28T01:15:56.129Z,20.03
2019-03-28T01:21:16.936Z,18.97
2019-03-28T01:26:37.742Z,23.73
2019-03-28T01:31:58.629Z,19.17
2019-03-28T01:37:19.833Z,22.13
2019-03-28T01:42:41.070Z,22.60
2019-03-28T01:48:02.328Z,23.30
2019-03-28T01:53:23.254Z,23.10
2019-03-28T01:58:44.396Z,24.57
2019-03-28T02:04:05.606Z,27.87
2019-03-28T02:09:26.120Z,21.87
2019-03-28T02:14:47.563Z,25.23
2019-03-28T02:20:09.294Z,24.03
2019-03-28T02:25:31.723Z,22.90
2019-03-28T02:30:52.988Z,26.07
2019-03-28T02:36:13.837Z,23.73
2019-03-28T02:41:35.387Z,30.80
2019-03-28T02:46:56.711Z,24.53
2019-03-28T02:52:18.110Z,28.13
2019-03-28T02:57:42.305Z,27.87
2019-03-28T03:03:01.895Z,27.77
2019-03-28T03:08:23.050Z,22.27
2019-03-28T03:13:44.328Z,25.57
2019-03-28T03:19:06.756Z,29.97
2019-03-28T03:24:27.685Z,23.57
2019-03-28T03:29:49.042Z,25.77
2019-03-28T03:35:10.773Z,27.17
2019-03-28T03:40:31.789Z,30.57
2019-03-28T03:45:52.927Z,25.50
2019-03-28T03:51:14.703Z,26.63
2019-03-28T03:56:35.851Z,29.40
2019-03-28T04:01:56.716Z,29.53
2019-03-28T04:07:17.945Z,29.87
2019-03-28T04:12:38.925Z,28.80
2019-03-28T04:17:59.542Z,29.30
2019-03-28T04:23:20.529Z,30.87
2019-03-28T04:28:41.395Z,32.70
2019-03-28T04:34:07.514Z,24.63
2019-03-28T04:39:26.829Z,25.90
2019-03-28T04:44:48.050Z,26.90
2019-03-28T04:50:10.437Z,23.73
2019-03-28T04:55:31.406Z,23.00
2019-03-28T05:00:52.461Z,24.70
2019-03-28T05:06:13.665Z,23.77
2019-03-28T05:11:34.750Z,22.33
2019-03-28T05:16:55.805Z,30.63
2019-03-28T05:22:16.789Z,23.23
2019-03-28T05:27:38.051Z,20.63
2019-03-28T05:32:58.976Z,24.80
2019-03-28T05:38:19.965Z,24.90
2019-03-28T05:43:40.647Z,22.57
2019-03-28T05:49:01.794Z,25.50
2019-03-28T05:54:22.847Z,26.13
2019-03-28T05:59:43.817Z,25.30
2019-03-28T06:05:05.541Z,22.93
2019-03-28T06:10:26.377Z,24.60
2019-03-28T06:15:47.497Z,23.37
2019-03-28T06:21:08.669Z,28.07
2019-03-28T06:26:29.629Z,24.30
2019-03-28T06:31:55.612Z,23.20
2019-03-28T06:37:13.623Z,23.60
2019-03-28T06:42:34.814Z,30.60
2019-03-28T06:47:56.203Z,26.50
2019-03-28T06:53:17.275Z,28.03
2019-03-28T06:58:38.022Z,29.40
2019-03-28T07:03:58.766Z,24.43
2019-03-28T07:09:19.956Z,28.37
2019-03-28T07:14:40.862Z,28.87
2019-03-28T07:20:02.235Z,25.80
2019-03-28T07:25:25.588Z,23.90
2019-03-28T07:30:46.068Z,25.27
2019-03-28T07:36:06.863Z,27.33
2019-03-28T07:41:27.847Z,24.53
2019-03-28T07:46:49.097Z,22.57
2019-03-28T07:52:10.246Z,25.73
2019-03-28T07:57:31.620Z,25.67
2019-03-28T08:02:52.659Z,25.00
2019-03-28T08:08:14.491Z,23.30
2019-03-28T08:13:35.434Z,22.57
2019-03-28T08:18:56.574Z,24.13
2019-03-28T08:24:17.382Z,16.37
2019-03-28T08:29:38.437Z,17.23
2019-03-28T08:34:59.687Z,22.37
2019-03-28T08:40:33.619Z,20.50
2019-03-28T08:45:54.906Z,17.00
2019-03-28T08:51:15.653Z,19.47
2019-03-28T08:56:36.716Z,15.30
2019-03-28T09:01:58.864Z,18.23
2019-03-28T09:07:20.176Z,17.17
2019-03-28T09:12:41.197Z,20.87
2019-03-28T09:18:02.768Z,15.03
2019-03-28T09:23:23.708Z,18.53
2019-03-28T09:28:44.852Z,17.83
2019-03-28T09:34:06.057Z,18.03
2019-03-28T09:39:26.988Z,15.60
2019-03-28T09:44:48.139Z,14.13
2019-03-28T09:50:09.517Z,15.97
2019-03-28T09:55:30.361Z,16.43
2019-03-28T10:01:02.780Z,17.80
2019-03-28T10:06:15.487Z,14.93
2019-03-28T10:11:36.269Z,17.57
2019-03-28T10:16:57.069Z,17.93
2019-03-28T10:22:17.872Z,12.73
2019-03-28T10:27:39.051Z,11.50
2019-03-28T10:33:00.036Z,14.97
2019-03-28T10:38:21.111Z,12.27
2019-03-28T10:43:42.543Z,12.13
2019-03-28T10:49:04.063Z,11.50
2019-03-28T10:54:25.827Z,14.50
2019-03-28T10:59:46.928Z,13.40
2019-03-28T11:05:08.771Z,9.07
2019-03-28T11:10:30.652Z,12.43
2019-03-28T11:15:51.562Z,10.03
2019-03-28T11:21:12.672Z,11.37
2019-03-28T11:26:34.022Z,14.37
2019-03-28T11:31:55.128Z,15.47
2019-03-28T11:37:25.917Z,14.10
2019-03-28T11:42:39.456Z,15.83
2019-03-28T11:48:00.584Z,15.57
2019-03-28T11:53:23.911Z,15.30
2019-03-28T11:58:48.230Z,16.53
2019-03-28T12:04:09.407Z,14.50
2019-03-28T12:09:30.621Z,12.43
2019-03-28T12:14:51.393Z,12.13
2019-03-28T12:20:12.758Z,14.00
2019-03-28T12:25:34.652Z,13.07
2019-03-28T12:30:55.894Z,12.13
2019-03-28T12:36:16.837Z,11.17
2019-03-28T12:41:39.992Z,11.97
2019-03-28T12:47:01.322Z,9.53
2019-03-28T12:52:22.606Z,9.90
2019-03-28T12:57:44.021Z,10.60
2019-03-28T13:03:06.343Z,12.20
2019-03-28T13:08:27.541Z,9.57
2019-03-28T13:13:48.953Z,15.80
2019-03-28T13:19:09.718Z,14.13
2019-03-28T13:24:31.062Z,15.57
2019-03-28T13:29:54.991Z,11.30
2019-03-28T13:35:15.040Z,12.60
2019-03-28T13:40:36.319Z,13.47
2019-03-28T13:45:57.513Z,18.00
2019-03-28T13:51:18.676Z,14.63
2019-03-28T13:56:39.827Z,15.47
2019-03-28T14:02:01.218Z,13.63
2019-03-28T14:07:22.860Z,15.60
2019-03-28T14:12:44.284Z,14.93
2019-03-28T14:18:05.342Z,16.07
2019-03-28T14:23:26.504Z,13.23
2019-03-28T14:28:47.659Z,12.17
2019-03-28T14:34:08.623Z,13.30
2019-03-28T14:39:29.649Z,15.57
2019-03-28T14:44:50.591Z,12.90
2019-03-28T14:50:12.339Z,13.60
2019-03-28T14:55:34.515Z,12.57
2019-03-28T15:00:55.545Z,14.63
2019-03-28T15:06:16.757Z,14.10
2019-03-28T15:11:37.520Z,12.23
2019-03-28T15:16:59.356Z,12.27
2019-03-28T15:22:19.947Z,16.43
2019-03-28T15:27:41.111Z,11.70
2019-03-28T15:33:02.368Z,12.77
2019-03-28T15:38:23.677Z,10.50
2019-03-28T15:43:44.564Z,10.30
2019-03-28T15:49:05.760Z,11.73
2019-03-28T15:54:26.338Z,10.47
2019-03-28T15:59:46.993Z,8.60
2019-03-28T16:05:08.404Z,8.77
2019-03-28T16:10:29.477Z,12.63
2019-03-28T16:15:50.457Z,11.73
2019-03-28T16:21:11.717Z,12.27
2019-03-28T16:26:32.827Z,15.27
2019-03-28T16:31:53.644Z,15.20
2019-03-28T16:37:15.018Z,14.43
2019-03-28T16:42:36.130Z,14.03
2019-03-28T16:47:56.999Z,12.80
2019-03-28T16:53:17.952Z,17.60
2019-03-28T16:58:38.584Z,18.90
2019-03-28T17:03:59.341Z,14.63
2019-03-28T17:09:21.261Z,13.10
2019-03-28T17:14:42.125Z,13.53
2019-03-28T17:20:03.439Z,11.93
2019-03-28T17:25:24.318Z,11.80
2019-03-28T17:30:45.674Z,13.40
2019-03-28T17:36:06.593Z,16.33
2019-03-28T17:41:27.704Z,15.90
2019-03-28T17:46:48.587Z,14.37
2019-03-28T17:52:09.527Z,15.10
2019-03-28T17:57:32.212Z,13.27
2019-03-28T18:02:53.486Z,16.17
2019-03-28T18:08:14.510Z,15.73
2019-03-28T18:13:35.937Z,18.97
2019-03-28T18:18:56.721Z,21.67
2019-03-28T18:24:17.578Z,20.43
2019-03-28T18:29:38.600Z,20.50
2019-03-28T18:35:05.548Z,22.87
2019-03-28T18:40:22.876Z,17.83
2019-03-28T18:45:44.023Z,20.33
2019-03-28T18:51:05.333Z,21.23
2019-03-28T18:56:26.490Z,18.83
2019-03-28T19:01:47.678Z,17.63
2019-03-28T19:07:09.829Z,20.60
2019-03-28T19:12:30.953Z,19.97
2019-03-28T19:17:52.070Z,18.70
2019-03-28T19:23:12.838Z,19.87
2019-03-28T19:28:34.263Z,16.60
2019-03-28T19:33:55.425Z,18.73
2019-03-28T19:39:26.233Z,18.20
2019-03-28T19:44:47.266Z,18.07
2019-03-28T19:50:13.221Z,19.03
2019-03-28T19:55:34.332Z,17.80
2019-03-28T20:00:56.665Z,19.20
2019-03-28T20:06:22.468Z,20.27
2019-03-28T20:11:40.624Z,20.70
2019-03-28T20:17:03.116Z,18.23
2019-03-28T20:22:24.127Z,17.43
2019-03-28T20:27:45.438Z,18.77
2019-03-28T20:33:06.694Z,19.27
2019-03-28T20:38:27.667Z,18.97
2019-03-28T20:43:48.910Z,20.10
2019-03-28T20:49:11.309Z,18.93
2019-03-28T20:54:33.238Z,19.57
2019-03-28T20:59:54.346Z,20.23
2019-03-28T21:05:15.598Z,17.63
2019-03-28T21:10:36.610Z,19.87
2019-03-28T21:15:57.415Z,20.53
2019-03-28T21:21:18.463Z,19.27
2019-03-28T21:26:39.131Z,20.23
2019-03-28T21:32:00.215Z,20.97
2019-03-28T21:37:22.580Z,22.87
2019-03-28T21:42:43.729Z,19.20
2019-03-28T21:48:05.000Z,24.03
2019-03-28T21:53:26.085Z,20.10
2019-03-28T21:58:46.779Z,21.73
2019-03-28T22:04:08.917Z,23.20
2019-03-28T22:09:30.042Z,20.20
2019-03-28T22:14:51.106Z,21.23
2019-03-28T22:20:12.450Z,18.83
2019-03-28T22:25:33.702Z,19.10
2019-03-28T22:30:54.758Z,20.20
2019-03-28T22:36:15.864Z,22.20
2019-03-28T22:41:37.125Z,19.40
2019-03-28T22:46:58.420Z,18.60
2019-03-28T22:52:19.615Z,22.27
2019-03-28T22:57:41.196Z,24.50
2019-03-28T23:03:04.068Z,21.20
2019-03-28T23:08:25.040Z,23.37
2019-03-28T23:13:45.631Z,21.53
2019-03-28T23:19:06.738Z,24.63
2019-03-28T23:24:27.932Z,23.17
2019-03-28T23:29:48.587Z,23.43
2019-03-28T23:35:10.289Z,23.17
2019-03-28T23:40:31.313Z,21.73
2019-03-28T23:45:53.543Z,22.40
2019-03-28T23:51:14.508Z,21.20
2019-03-28T23:56:36.908Z,24.93
